sensor_id;sensor_type;location;lat;lon;timestamp;temperature;humidity
34833;DHT22;55941;50.800;4.342;2023-04-03T00:01:07;4.70;99.90
34833;DHT22;55941;50.800;4.342;2023-04-03T00:03:33;4.50;99.90
34833;DHT22;55941;50.800;4.342;2023-04-03T00:05:59;4.60;99.90
34833;DHT22;55941;50.800;4.342;2023-04-03T00:08:25;4.60;99.90
34833;DHT22;55941;50.800;4.342;2023-04-03T00:10:51;4.70;99.90
34833;DHT22;55941;50.800;4.342;2023-04-03T00:13:17;4.70;99.90
34833;DHT22;55941;50.800;4.342;2023-04-03T00:15:43;4.70;99.90
34833;DHT22;55941;50.800;4.342;2023-04-03T00:18:09;4.80;99.90
34833;DHT22;55941;50.800;4.342;2023-04-03T00:20:35;4.80;99.90
34833;DHT22;55941;50.800;4.342;2023-04-03T00:23:01;4.70;99.90
34833;DHT22;55941;50.800;4.342;2023-04-03T00:25:26;4.70;99.90
34833;DHT22;55941;50.800;4.342;2023-04-03T00:27:52;4.70;99.90
34833;DHT22;55941;50.800;4.342;2023-04-03T00:30:19;4.80;99.90
34833;DHT22;55941;50.800;4.342;2023-04-03T00:32:47;4.80;99.90
34833;DHT22;55941;50.800;4.342;2023-04-03T00:35:13;4.90;99.90
34833;DHT22;55941;50.800;4.342;2023-04-03T00:37:41;5.10;99.90
34833;DHT22;55941;50.800;4.342;2023-04-03T00:40:08;5.10;99.90
34833;DHT22;55941;50.800;4.342;2023-04-03T00:42:36;4.90;99.90
34833;DHT22;55941;50.800;4.342;2023-04-03T00:47:29;4.90;99.90
34833;DHT22;55941;50.800;4.342;2023-04-03T00:49:56;4.80;99.90
34833;DHT22;55941;50.800;4.342;2023-04-03T00:52:28;4.90;99.90
34833;DHT22;55941;50.800;4.342;2023-04-03T00:54:54;4.80;99.90
34833;DHT22;55941;50.800;4.342;2023-04-03T00:57:23;4.80;99.90
34833;DHT22;55941;50.800;4.342;2023-04-03T00:59:55;4.90;99.90
34833;DHT22;55941;50.800;4.342;2023-04-03T01:02:23;4.80;99.90
34833;DHT22;55941;50.800;4.342;2023-04-03T01:04:49;4.80;99.90
34833;DHT22;55941;50.800;4.342;2023-04-03T01:07:18;4.90;99.90
34833;DHT22;55941;50.800;4.342;2023-04-03T01:09:45;4.80;99.90
34833;DHT22;55941;50.800;4.342;2023-04-03T01:12:30;4.80;99.90
34833;DHT22;55941;50.800;4.342;2023-04-03T01:15:00;4.80;99.90
34833;DHT22;55941;50.800;4.342;2023-04-03T01:25:45;4.80;99.90
34833;DHT22;55941;50.800;4.342;2023-04-03T01:28:16;4.80;99.90
34833;DHT22;55941;50.800;4.342;2023-04-03T01:33:14;4.80;99.90
34833;DHT22;55941;50.800;4.342;2023-04-03T01:35:40;4.70;99.90
34833;DHT22;55941;50.800;4.342;2023-04-03T01:38:06;4.60;99.90
34833;DHT22;55941;50.800;4.342;2023-04-03T01:40:32;4.60;99.90
34833;DHT22;55941;50.800;4.342;2023-04-03T01:42:57;4.60;99.90
34833;DHT22;55941;50.800;4.342;2023-04-03T01:45:23;4.70;99.90
34833;DHT22;55941;50.800;4.342;2023-04-03T01:47:49;4.50;99.90
34833;DHT22;55941;50.800;4.342;2023-04-03T01:50:15;4.50;99.90
34833;DHT22;55941;50.800;4.342;2023-04-03T01:52:40;4.70;99.90
34833;DHT22;55941;50.800;4.342;2023-04-03T01:55:06;4.60;99.90
34833;DHT22;55941;50.800;4.342;2023-04-03T01:57:32;4.70;99.90
34833;DHT22;55941;50.800;4.342;2023-04-03T01:59:58;4.80;99.90
34833;DHT22;55941;50.800;4.342;2023-04-03T02:02:24;4.90;99.90
34833;DHT22;55941;50.800;4.342;2023-04-03T02:04:50;4.80;99.90
34833;DHT22;55941;50.800;4.342;2023-04-03T02:07:15;4.70;99.90
34833;DHT22;55941;50.800;4.342;2023-04-03T02:09:41;4.50;99.90
34833;DHT22;55941;50.800;4.342;2023-04-03T02:12:07;4.50;99.90
34833;DHT22;55941;50.800;4.342;2023-04-03T02:14:32;4.50;99.90
34833;DHT22;55941;50.800;4.342;2023-04-03T02:16:59;4.40;99.90
34833;DHT22;55941;50.800;4.342;2023-04-03T02:19:26;4.40;99.90
34833;DHT22;55941;50.800;4.342;2023-04-03T02:21:51;4.50;99.90
34833;DHT22;55941;50.800;4.342;2023-04-03T02:24:17;4.50;99.90
34833;DHT22;55941;50.800;4.342;2023-04-03T02:26:43;4.30;99.90
34833;DHT22;55941;50.800;4.342;2023-04-03T02:29:08;4.30;99.90
34833;DHT22;55941;50.800;4.342;2023-04-03T02:31:35;4.20;99.90
34833;DHT22;55941;50.800;4.342;2023-04-03T02:34:01;4.20;99.90
34833;DHT22;55941;50.800;4.342;2023-04-03T02:36:26;4.20;99.90
34833;DHT22;55941;50.800;4.342;2023-04-03T02:38:52;4.10;99.90
34833;DHT22;55941;50.800;4.342;2023-04-03T02:41:17;4.10;99.90
34833;DHT22;55941;50.800;4.342;2023-04-03T02:43:43;4.10;99.90
34833;DHT22;55941;50.800;4.342;2023-04-03T02:46:09;4.00;99.90
34833;DHT22;55941;50.800;4.342;2023-04-03T02:48:35;4.00;99.90
34833;DHT22;55941;50.800;4.342;2023-04-03T02:51:01;3.90;99.90
34833;DHT22;55941;50.800;4.342;2023-04-03T02:53:27;3.90;99.90
34833;DHT22;55941;50.800;4.342;2023-04-03T02:55:53;3.80;99.90
34833;DHT22;55941;50.800;4.342;2023-04-03T02:58:18;3.90;99.90
34833;DHT22;55941;50.800;4.342;2023-04-03T03:00:44;3.80;99.90
34833;DHT22;55941;50.800;4.342;2023-04-03T03:03:10;3.80;99.90
34833;DHT22;55941;50.800;4.342;2023-04-03T03:05:36;3.70;99.90
34833;DHT22;55941;50.800;4.342;2023-04-03T03:08:02;3.60;99.90
34833;DHT22;55941;50.800;4.342;2023-04-03T03:10:28;3.70;99.90
34833;DHT22;55941;50.800;4.342;2023-04-03T03:12:55;3.70;99.90
34833;DHT22;55941;50.800;4.342;2023-04-03T03:15:20;3.60;99.90
34833;DHT22;55941;50.800;4.342;2023-04-03T03:17:46;3.50;99.90
34833;DHT22;55941;50.800;4.342;2023-04-03T03:20:12;3.40;99.90
34833;DHT22;55941;50.800;4.342;2023-04-03T03:22:40;3.40;99.90
34833;DHT22;55941;50.800;4.342;2023-04-03T03:25:06;3.50;99.90
34833;DHT22;55941;50.800;4.342;2023-04-03T03:27:32;3.50;99.90
34833;DHT22;55941;50.800;4.342;2023-04-03T03:29:58;3.40;99.90
34833;DHT22;55941;50.800;4.342;2023-04-03T03:32:24;3.30;99.90
34833;DHT22;55941;50.800;4.342;2023-04-03T03:34:49;3.50;99.90
34833;DHT22;55941;50.800;4.342;2023-04-03T03:37:16;3.30;99.90
34833;DHT22;55941;50.800;4.342;2023-04-03T03:39:42;3.30;99.90
34833;DHT22;55941;50.800;4.342;2023-04-03T03:42:07;3.30;99.90
34833;DHT22;55941;50.800;4.342;2023-04-03T03:44:33;3.30;99.90
34833;DHT22;55941;50.800;4.342;2023-04-03T03:46:59;3.20;99.90
34833;DHT22;55941;50.800;4.342;2023-04-03T03:49:25;3.50;99.90
34833;DHT22;55941;50.800;4.342;2023-04-03T03:51:50;3.40;99.90
34833;DHT22;55941;50.800;4.342;2023-04-03T03:54:18;3.20;99.90
34833;DHT22;55941;50.800;4.342;2023-04-03T03:56:44;3.20;99.90
34833;DHT22;55941;50.800;4.342;2023-04-03T03:59:11;3.30;99.90
34833;DHT22;55941;50.800;4.342;2023-04-03T04:01:39;3.10;99.90
34833;DHT22;55941;50.800;4.342;2023-04-03T04:04:06;3.00;99.90
34833;DHT22;55941;50.800;4.342;2023-04-03T04:06:33;2.90;99.90
34833;DHT22;55941;50.800;4.342;2023-04-03T04:08:58;2.90;99.90
34833;DHT22;55941;50.800;4.342;2023-04-03T04:11:24;3.00;99.90
34833;DHT22;55941;50.800;4.342;2023-04-03T04:13:50;2.90;99.90
34833;DHT22;55941;50.800;4.342;2023-04-03T04:16:15;3.00;99.90
34833;DHT22;55941;50.800;4.342;2023-04-03T04:18:42;2.90;99.90
34833;DHT22;55941;50.800;4.342;2023-04-03T04:21:08;2.80;99.90
34833;DHT22;55941;50.800;4.342;2023-04-03T04:23:34;2.90;99.90
34833;DHT22;55941;50.800;4.342;2023-04-03T04:25:59;2.90;99.90
34833;DHT22;55941;50.800;4.342;2023-04-03T04:28:25;2.90;99.90
34833;DHT22;55941;50.800;4.342;2023-04-03T04:30:50;2.80;99.90
34833;DHT22;55941;50.800;4.342;2023-04-03T04:33:17;2.80;99.90
34833;DHT22;55941;50.800;4.342;2023-04-03T04:35:46;2.70;99.90
34833;DHT22;55941;50.800;4.342;2023-04-03T04:38:12;2.70;99.90
34833;DHT22;55941;50.800;4.342;2023-04-03T04:40:37;2.70;99.90
34833;DHT22;55941;50.800;4.342;2023-04-03T04:43:03;2.70;99.90
34833;DHT22;55941;50.800;4.342;2023-04-03T04:45:29;2.80;99.90
34833;DHT22;55941;50.800;4.342;2023-04-03T04:47:57;2.70;99.90
34833;DHT22;55941;50.800;4.342;2023-04-03T04:50:23;2.80;99.90
34833;DHT22;55941;50.800;4.342;2023-04-03T04:52:49;2.90;99.90
34833;DHT22;55941;50.800;4.342;2023-04-03T04:55:14;2.90;99.90
34833;DHT22;55941;50.800;4.342;2023-04-03T04:57:40;2.90;99.90
34833;DHT22;55941;50.800;4.342;2023-04-03T05:00:06;3.00;99.90
34833;DHT22;55941;50.800;4.342;2023-04-03T05:02:32;3.00;99.90
34833;DHT22;55941;50.800;4.342;2023-04-03T05:04:57;3.10;99.90
34833;DHT22;55941;50.800;4.342;2023-04-03T05:07:24;3.10;99.90
34833;DHT22;55941;50.800;4.342;2023-04-03T05:09:50;3.00;99.90
34833;DHT22;55941;50.800;4.342;2023-04-03T05:12:17;2.90;99.90
34833;DHT22;55941;50.800;4.342;2023-04-03T05:14:42;3.00;99.90
34833;DHT22;55941;50.800;4.342;2023-04-03T05:17:08;2.90;99.90
34833;DHT22;55941;50.800;4.342;2023-04-03T05:19:34;3.00;99.90
34833;DHT22;55941;50.800;4.342;2023-04-03T05:21:59;3.10;99.90
34833;DHT22;55941;50.800;4.342;2023-04-03T05:24:25;3.10;99.90
34833;DHT22;55941;50.800;4.342;2023-04-03T05:26:51;3.00;99.90
34833;DHT22;55941;50.800;4.342;2023-04-03T05:29:17;3.00;99.90
34833;DHT22;55941;50.800;4.342;2023-04-03T05:31:43;2.90;99.90
34833;DHT22;55941;50.800;4.342;2023-04-03T05:34:09;3.10;99.90
34833;DHT22;55941;50.800;4.342;2023-04-03T05:36:34;3.10;99.90
34833;DHT22;55941;50.800;4.342;2023-04-03T05:39:00;3.00;99.90
34833;DHT22;55941;50.800;4.342;2023-04-03T05:41:26;3.10;99.90
34833;DHT22;55941;50.800;4.342;2023-04-03T05:43:52;3.10;99.90
34833;DHT22;55941;50.800;4.342;2023-04-03T05:46:19;3.10;99.90
34833;DHT22;55941;50.800;4.342;2023-04-03T05:48:45;3.20;99.90
34833;DHT22;55941;50.800;4.342;2023-04-03T05:51:17;3.10;99.90
34833;DHT22;55941;50.800;4.342;2023-04-03T05:53:44;3.00;99.90
34833;DHT22;55941;50.800;4.342;2023-04-03T05:56:10;3.00;99.90
34833;DHT22;55941;50.800;4.342;2023-04-03T05:58:36;3.10;99.90
34833;DHT22;55941;50.800;4.342;2023-04-03T06:01:02;3.10;99.90
34833;DHT22;55941;50.800;4.342;2023-04-03T06:03:27;3.00;99.90
34833;DHT22;55941;50.800;4.342;2023-04-03T06:05:53;3.10;99.90
34833;DHT22;55941;50.800;4.342;2023-04-03T06:08:19;3.10;99.90
34833;DHT22;55941;50.800;4.342;2023-04-03T06:10:45;3.10;99.90
34833;DHT22;55941;50.800;4.342;2023-04-03T06:13:10;3.10;99.90
34833;DHT22;55941;50.800;4.342;2023-04-03T06:15:37;3.20;99.90
34833;DHT22;55941;50.800;4.342;2023-04-03T06:18:05;3.20;99.90
34833;DHT22;55941;50.800;4.342;2023-04-03T06:20:30;3.20;99.90
34833;DHT22;55941;50.800;4.342;2023-04-03T06:22:56;3.40;99.90
34833;DHT22;55941;50.800;4.342;2023-04-03T06:25:22;3.40;99.90
34833;DHT22;55941;50.800;4.342;2023-04-03T06:27:48;3.50;99.90
34833;DHT22;55941;50.800;4.342;2023-04-03T06:30:14;3.70;99.90
34833;DHT22;55941;50.800;4.342;2023-04-03T06:32:40;3.80;99.90
34833;DHT22;55941;50.800;4.342;2023-04-03T06:35:06;3.80;99.90
34833;DHT22;55941;50.800;4.342;2023-04-03T06:37:32;3.90;99.90
34833;DHT22;55941;50.800;4.342;2023-04-03T06:39:58;4.10;99.90
34833;DHT22;55941;50.800;4.342;2023-04-03T06:42:25;4.20;99.90
34833;DHT22;55941;50.800;4.342;2023-04-03T06:44:51;4.40;99.90
34833;DHT22;55941;50.800;4.342;2023-04-03T06:47:17;4.60;99.90
34833;DHT22;55941;50.800;4.342;2023-04-03T06:49:44;4.60;99.90
34833;DHT22;55941;50.800;4.342;2023-04-03T06:52:10;4.70;99.90
34833;DHT22;55941;50.800;4.342;2023-04-03T06:54:37;4.80;99.90
34833;DHT22;55941;50.800;4.342;2023-04-03T06:57:03;4.80;99.90
34833;DHT22;55941;50.800;4.342;2023-04-03T06:59:29;4.90;99.90
34833;DHT22;55941;50.800;4.342;2023-04-03T07:01:55;5.00;99.90
34833;DHT22;55941;50.800;4.342;2023-04-03T07:04:20;5.00;99.90
34833;DHT22;55941;50.800;4.342;2023-04-03T07:06:47;4.90;99.90
34833;DHT22;55941;50.800;4.342;2023-04-03T07:09:14;4.90;99.90
34833;DHT22;55941;50.800;4.342;2023-04-03T07:11:40;5.00;99.90
34833;DHT22;55941;50.800;4.342;2023-04-03T07:14:06;5.00;99.90
34833;DHT22;55941;50.800;4.342;2023-04-03T07:16:36;5.20;99.90
34833;DHT22;55941;50.800;4.342;2023-04-03T07:19:02;5.20;99.90
34833;DHT22;55941;50.800;4.342;2023-04-03T07:21:29;5.30;99.90
34833;DHT22;55941;50.800;4.342;2023-04-03T07:23:55;5.40;99.90
34833;DHT22;55941;50.800;4.342;2023-04-03T07:26:21;5.60;99.90
34833;DHT22;55941;50.800;4.342;2023-04-03T07:28:48;5.60;99.90
34833;DHT22;55941;50.800;4.342;2023-04-03T07:31:14;5.70;99.90
34833;DHT22;55941;50.800;4.342;2023-04-03T07:33:41;5.70;99.90
34833;DHT22;55941;50.800;4.342;2023-04-03T07:36:08;5.70;99.90
34833;DHT22;55941;50.800;4.342;2023-04-03T07:38:34;5.80;99.90
34833;DHT22;55941;50.800;4.342;2023-04-03T07:41:01;5.80;99.90
34833;DHT22;55941;50.800;4.342;2023-04-03T07:43:26;6.10;99.90
34833;DHT22;55941;50.800;4.342;2023-04-03T07:45:53;6.20;99.90
34833;DHT22;55941;50.800;4.342;2023-04-03T07:48:21;6.20;99.90
34833;DHT22;55941;50.800;4.342;2023-04-03T07:50:47;6.00;99.90
34833;DHT22;55941;50.800;4.342;2023-04-03T07:53:13;6.00;99.90
34833;DHT22;55941;50.800;4.342;2023-04-03T07:55:40;6.00;99.90
34833;DHT22;55941;50.800;4.342;2023-04-03T07:58:10;5.90;99.90
34833;DHT22;55941;50.800;4.342;2023-04-03T08:00:36;6.00;99.90
34833;DHT22;55941;50.800;4.342;2023-04-03T08:03:02;6.00;99.90
34833;DHT22;55941;50.800;4.342;2023-04-03T08:05:28;6.00;99.90
34833;DHT22;55941;50.800;4.342;2023-04-03T08:07:53;6.20;99.90
34833;DHT22;55941;50.800;4.342;2023-04-03T08:10:19;6.30;99.90
34833;DHT22;55941;50.800;4.342;2023-04-03T08:12:48;6.30;99.90
34833;DHT22;55941;50.800;4.342;2023-04-03T08:15:14;6.40;99.90
34833;DHT22;55941;50.800;4.342;2023-04-03T08:17:40;6.40;99.90
34833;DHT22;55941;50.800;4.342;2023-04-03T08:20:07;6.40;99.90
34833;DHT22;55941;50.800;4.342;2023-04-03T08:22:33;6.50;99.90
34833;DHT22;55941;50.800;4.342;2023-04-03T08:24:59;6.70;99.90
34833;DHT22;55941;50.800;4.342;2023-04-03T08:27:26;6.70;99.90
34833;DHT22;55941;50.800;4.342;2023-04-03T08:29:52;6.70;99.90
34833;DHT22;55941;50.800;4.342;2023-04-03T08:32:19;6.80;99.90
34833;DHT22;55941;50.800;4.342;2023-04-03T08:34:45;6.90;99.90
34833;DHT22;55941;50.800;4.342;2023-04-03T08:37:11;7.00;99.90
34833;DHT22;55941;50.800;4.342;2023-04-03T08:39:37;7.10;99.90
34833;DHT22;55941;50.800;4.342;2023-04-03T08:42:13;7.20;99.90
34833;DHT22;55941;50.800;4.342;2023-04-03T08:45:00;7.30;99.90
34833;DHT22;55941;50.800;4.342;2023-04-03T08:47:47;7.30;99.90
34833;DHT22;55941;50.800;4.342;2023-04-03T08:50:17;7.40;99.90
34833;DHT22;55941;50.800;4.342;2023-04-03T08:52:56;7.20;99.90
34833;DHT22;55941;50.800;4.342;2023-04-03T08:55:27;7.30;99.90
34833;DHT22;55941;50.800;4.342;2023-04-03T08:58:17;7.40;99.90
34833;DHT22;55941;50.800;4.342;2023-04-03T09:03:36;7.60;99.90
34833;DHT22;55941;50.800;4.342;2023-04-03T09:06:13;7.60;99.90
34833;DHT22;55941;50.800;4.342;2023-04-03T09:08:44;7.60;99.90
34833;DHT22;55941;50.800;4.342;2023-04-03T09:13:59;7.60;99.90
34833;DHT22;55941;50.800;4.342;2023-04-03T09:21:50;7.80;99.90
34833;DHT22;55941;50.800;4.342;2023-04-03T09:24:16;7.70;99.90
34833;DHT22;55941;50.800;4.342;2023-04-03T09:26:56;7.80;99.90
34833;DHT22;55941;50.800;4.342;2023-04-03T09:29:26;8.00;99.90
34833;DHT22;55941;50.800;4.342;2023-04-03T09:31:58;7.90;99.90
34833;DHT22;55941;50.800;4.342;2023-04-03T09:34:36;7.90;99.90
34833;DHT22;55941;50.800;4.342;2023-04-03T09:37:03;8.00;99.90
34833;DHT22;55941;50.800;4.342;2023-04-03T09:39:32;8.00;99.90
34833;DHT22;55941;50.800;4.342;2023-04-03T09:44:33;8.00;99.90
34833;DHT22;55941;50.800;4.342;2023-04-03T09:47:00;8.00;99.90
34833;DHT22;55941;50.800;4.342;2023-04-03T09:49:42;8.10;99.90
34833;DHT22;55941;50.800;4.342;2023-04-03T09:52:21;8.30;99.90
34833;DHT22;55941;50.800;4.342;2023-04-03T09:54:48;8.50;99.90
34833;DHT22;55941;50.800;4.342;2023-04-03T09:57:14;8.40;99.90
34833;DHT22;55941;50.800;4.342;2023-04-03T10:00:00;8.40;99.90
34833;DHT22;55941;50.800;4.342;2023-04-03T10:02:36;8.50;99.90
34833;DHT22;55941;50.800;4.342;2023-04-03T10:05:04;8.50;99.90
34833;DHT22;55941;50.800;4.342;2023-04-03T10:07:38;8.50;99.90
34833;DHT22;55941;50.800;4.342;2023-04-03T10:10:20;8.70;99.90
34833;DHT22;55941;50.800;4.342;2023-04-03T10:12:48;8.80;99.90
34833;DHT22;55941;50.800;4.342;2023-04-03T10:15:16;8.90;99.90
34833;DHT22;55941;50.800;4.342;2023-04-03T10:17:57;8.90;99.90
34833;DHT22;55941;50.800;4.342;2023-04-03T10:21:02;9.00;99.90
34833;DHT22;55941;50.800;4.342;2023-04-03T10:23:28;9.00;99.90
34833;DHT22;55941;50.800;4.342;2023-04-03T10:26:07;9.00;99.90
34833;DHT22;55941;50.800;4.342;2023-04-03T10:31:30;9.00;99.90
34833;DHT22;55941;50.800;4.342;2023-04-03T10:34:39;9.00;99.90
34833;DHT22;55941;50.800;4.342;2023-04-03T10:37:14;9.10;99.90
34833;DHT22;55941;50.800;4.342;2023-04-03T10:39:49;9.30;99.90
34833;DHT22;55941;50.800;4.342;2023-04-03T10:50:38;9.50;99.90
34833;DHT22;55941;50.800;4.342;2023-04-03T10:53:11;9.70;99.90
34833;DHT22;55941;50.800;4.342;2023-04-03T10:58:13;9.90;99.90
34833;DHT22;55941;50.800;4.342;2023-04-03T11:00:46;9.90;99.90
34833;DHT22;55941;50.800;4.342;2023-04-03T11:05:44;10.10;99.90
34833;DHT22;55941;50.800;4.342;2023-04-03T11:10:42;10.30;99.80
34833;DHT22;55941;50.800;4.342;2023-04-03T11:13:34;10.30;99.90
34833;DHT22;55941;50.800;4.342;2023-04-03T11:16:02;10.30;98.90
34833;DHT22;55941;50.800;4.342;2023-04-03T11:18:42;10.50;98.70
34833;DHT22;55941;50.800;4.342;2023-04-03T11:21:22;10.40;98.70
34833;DHT22;55941;50.800;4.342;2023-04-03T11:23:51;10.50;99.50
34833;DHT22;55941;50.800;4.342;2023-04-03T11:26:22;10.80;99.30
34833;DHT22;55941;50.800;4.342;2023-04-03T11:28:58;11.10;99.50
34833;DHT22;55941;50.800;4.342;2023-04-03T11:34:31;11.80;98.60
34833;DHT22;55941;50.800;4.342;2023-04-03T11:37:00;12.30;95.70
34833;DHT22;55941;50.800;4.342;2023-04-03T11:39:29;12.80;93.70
34833;DHT22;55941;50.800;4.342;2023-04-03T11:42:22;13.30;90.80
34833;DHT22;55941;50.800;4.342;2023-04-03T11:44:50;13.60;88.90
34833;DHT22;55941;50.800;4.342;2023-04-03T11:47:48;14.00;89.00
34833;DHT22;55941;50.800;4.342;2023-04-03T11:58:14;16.10;82.10
34833;DHT22;55941;50.800;4.342;2023-04-03T12:00:50;16.40;78.10
34833;DHT22;55941;50.800;4.342;2023-04-03T12:16:45;17.60;69.40
34833;DHT22;55941;50.800;4.342;2023-04-03T12:26:43;18.00;61.60
34833;DHT22;55941;50.800;4.342;2023-04-03T12:29:18;18.10;58.50
34833;DHT22;55941;50.800;4.342;2023-04-03T12:35:24;17.70;58.10
34833;DHT22;55941;50.800;4.342;2023-04-03T12:41:21;17.90;55.10
34833;DHT22;55941;50.800;4.342;2023-04-03T12:46:49;18.30;53.80
34833;DHT22;55941;50.800;4.342;2023-04-03T12:49:38;18.00;53.20
34833;DHT22;55941;50.800;4.342;2023-04-03T12:52:28;18.00;53.60
34833;DHT22;55941;50.800;4.342;2023-04-03T12:54:56;18.40;52.10
34833;DHT22;55941;50.800;4.342;2023-04-03T12:57:26;19.00;50.70
34833;DHT22;55941;50.800;4.342;2023-04-03T12:59:53;19.30;49.40
34833;DHT22;55941;50.800;4.342;2023-04-03T13:04:51;18.90;49.70
34833;DHT22;55941;50.800;4.342;2023-04-03T13:07:30;19.10;48.00
34833;DHT22;55941;50.800;4.342;2023-04-03T13:10:18;18.80;47.60
34833;DHT22;55941;50.800;4.342;2023-04-03T13:12:48;18.50;48.50
34833;DHT22;55941;50.800;4.342;2023-04-03T13:17:45;18.50;47.80
34833;DHT22;55941;50.800;4.342;2023-04-03T13:20:22;18.70;47.70
34833;DHT22;55941;50.800;4.342;2023-04-03T13:23:02;19.10;47.20
34833;DHT22;55941;50.800;4.342;2023-04-03T13:25:31;19.10;46.20
34833;DHT22;55941;50.800;4.342;2023-04-03T13:27:59;18.90;45.30
34833;DHT22;55941;50.800;4.342;2023-04-03T13:30:30;19.10;44.10
34833;DHT22;55941;50.800;4.342;2023-04-03T13:32:58;19.30;43.60
34833;DHT22;55941;50.800;4.342;2023-04-03T13:35:32;19.00;43.60
34833;DHT22;55941;50.800;4.342;2023-04-03T13:38:22;19.20;42.70
34833;DHT22;55941;50.800;4.342;2023-04-03T13:40:52;19.30;42.80
34833;DHT22;55941;50.800;4.342;2023-04-03T13:43:21;19.50;42.10
34833;DHT22;55941;50.800;4.342;2023-04-03T13:45:57;19.50;43.20
34833;DHT22;55941;50.800;4.342;2023-04-03T13:48:24;19.80;42.20
34833;DHT22;55941;50.800;4.342;2023-04-03T13:56:39;19.90;40.00
34833;DHT22;55941;50.800;4.342;2023-04-03T14:01:45;20.30;42.10
34833;DHT22;55941;50.800;4.342;2023-04-03T14:04:22;20.60;40.40
34833;DHT22;55941;50.800;4.342;2023-04-03T14:06:48;20.90;39.30
34833;DHT22;55941;50.800;4.342;2023-04-03T14:09:15;20.60;40.40
34833;DHT22;55941;50.800;4.342;2023-04-03T14:11:42;20.00;40.30
34833;DHT22;55941;50.800;4.342;2023-04-03T14:14:14;20.20;39.70
34833;DHT22;55941;50.800;4.342;2023-04-03T14:16:44;20.40;39.40
34833;DHT22;55941;50.800;4.342;2023-04-03T14:19:18;20.40;39.90
34833;DHT22;55941;50.800;4.342;2023-04-03T14:21:45;20.80;41.20
34833;DHT22;55941;50.800;4.342;2023-04-03T14:24:11;20.70;40.00
34833;DHT22;55941;50.800;4.342;2023-04-03T14:26:37;20.90;39.80
34833;DHT22;55941;50.800;4.342;2023-04-03T14:29:03;20.80;40.60
34833;DHT22;55941;50.800;4.342;2023-04-03T14:31:29;20.80;40.40
34833;DHT22;55941;50.800;4.342;2023-04-03T14:33:54;20.70;40.50
34833;DHT22;55941;50.800;4.342;2023-04-03T14:36:23;21.00;38.40
34833;DHT22;55941;50.800;4.342;2023-04-03T14:38:52;21.10;38.80
34833;DHT22;55941;50.800;4.342;2023-04-03T14:41:20;21.00;39.00
34833;DHT22;55941;50.800;4.342;2023-04-03T14:43:48;20.90;38.70
34833;DHT22;55941;50.800;4.342;2023-04-03T14:46:30;20.90;38.20
34833;DHT22;55941;50.800;4.342;2023-04-03T14:48:57;20.40;39.30
34833;DHT22;55941;50.800;4.342;2023-04-03T14:51:23;20.70;38.20
34833;DHT22;55941;50.800;4.342;2023-04-03T14:53:49;20.60;39.70
34833;DHT22;55941;50.800;4.342;2023-04-03T14:56:27;20.10;41.00
34833;DHT22;55941;50.800;4.342;2023-04-03T14:58:58;20.90;39.00
34833;DHT22;55941;50.800;4.342;2023-04-03T15:01:27;21.30;37.70
34833;DHT22;55941;50.800;4.342;2023-04-03T15:03:52;21.40;36.90
34833;DHT22;55941;50.800;4.342;2023-04-03T15:06:18;21.50;36.80
34833;DHT22;55941;50.800;4.342;2023-04-03T15:08:46;21.80;35.90
34833;DHT22;55941;50.800;4.342;2023-04-03T15:11:13;21.30;36.10
34833;DHT22;55941;50.800;4.342;2023-04-03T15:13:40;21.70;36.00
34833;DHT22;55941;50.800;4.342;2023-04-03T15:16:15;20.80;36.00
34833;DHT22;55941;50.800;4.342;2023-04-03T15:18:41;20.80;37.90
34833;DHT22;55941;50.800;4.342;2023-04-03T15:21:07;20.90;36.40
34833;DHT22;55941;50.800;4.342;2023-04-03T15:23:33;21.00;35.70
34833;DHT22;55941;50.800;4.342;2023-04-03T15:25:59;21.70;37.90
34833;DHT22;55941;50.800;4.342;2023-04-03T15:28:31;22.00;36.30
34833;DHT22;55941;50.800;4.342;2023-04-03T15:30:58;22.40;35.40
34833;DHT22;55941;50.800;4.342;2023-04-03T15:33:25;21.90;34.20
34833;DHT22;55941;50.800;4.342;2023-04-03T15:35:51;21.20;35.00
34833;DHT22;55941;50.800;4.342;2023-04-03T15:38:17;21.60;35.30
34833;DHT22;55941;50.800;4.342;2023-04-03T15:40:43;21.30;36.30
34833;DHT22;55941;50.800;4.342;2023-04-03T15:43:09;21.30;36.50
34833;DHT22;55941;50.800;4.342;2023-04-03T15:45:36;21.20;36.60
34833;DHT22;55941;50.800;4.342;2023-04-03T15:48:03;21.30;35.70
34833;DHT22;55941;50.800;4.342;2023-04-03T15:50:31;21.20;35.90
34833;DHT22;55941;50.800;4.342;2023-04-03T15:52:58;21.30;35.90
34833;DHT22;55941;50.800;4.342;2023-04-03T15:55:25;20.70;37.40
34833;DHT22;55941;50.800;4.342;2023-04-03T15:57:52;21.00;36.60
34833;DHT22;55941;50.800;4.342;2023-04-03T16:00:18;20.80;37.40
34833;DHT22;55941;50.800;4.342;2023-04-03T16:02:46;20.70;36.70
34833;DHT22;55941;50.800;4.342;2023-04-03T16:05:13;20.20;38.30
34833;DHT22;55941;50.800;4.342;2023-04-03T16:07:41;20.20;38.30
34833;DHT22;55941;50.800;4.342;2023-04-03T16:10:08;20.30;37.40
34833;DHT22;55941;50.800;4.342;2023-04-03T16:12:35;20.30;37.60
34833;DHT22;55941;50.800;4.342;2023-04-03T16:15:03;20.20;38.20
34833;DHT22;55941;50.800;4.342;2023-04-03T16:17:32;19.30;38.90
34833;DHT22;55941;50.800;4.342;2023-04-03T16:19:59;18.20;41.30
34833;DHT22;55941;50.800;4.342;2023-04-03T16:22:27;17.30;42.80
34833;DHT22;55941;50.800;4.342;2023-04-03T16:24:55;16.40;44.30
34833;DHT22;55941;50.800;4.342;2023-04-03T16:27:22;15.70;45.60
34833;DHT22;55941;50.800;4.342;2023-04-03T16:29:55;15.20;46.20
34833;DHT22;55941;50.800;4.342;2023-04-03T16:32:23;14.70;47.50
34833;DHT22;55941;50.800;4.342;2023-04-03T16:34:52;14.30;47.70
34833;DHT22;55941;50.800;4.342;2023-04-03T16:37:18;14.30;48.80
34833;DHT22;55941;50.800;4.342;2023-04-03T16:39:43;14.10;50.30
34833;DHT22;55941;50.800;4.342;2023-04-03T16:42:09;14.00;50.40
34833;DHT22;55941;50.800;4.342;2023-04-03T16:44:36;13.70;51.10
34833;DHT22;55941;50.800;4.342;2023-04-03T16:47:02;13.60;51.10
34833;DHT22;55941;50.800;4.342;2023-04-03T16:49:28;13.60;51.40
34833;DHT22;55941;50.800;4.342;2023-04-03T16:51:59;13.40;52.50
34833;DHT22;55941;50.800;4.342;2023-04-03T16:54:26;13.20;52.20
34833;DHT22;55941;50.800;4.342;2023-04-03T16:56:52;13.00;52.70
34833;DHT22;55941;50.800;4.342;2023-04-03T16:59:18;12.70;53.80
34833;DHT22;55941;50.800;4.342;2023-04-03T17:01:44;12.70;54.20
34833;DHT22;55941;50.800;4.342;2023-04-03T17:04:10;12.70;54.60
34833;DHT22;55941;50.800;4.342;2023-04-03T17:06:37;12.30;55.10
34833;DHT22;55941;50.800;4.342;2023-04-03T17:09:05;12.30;55.30
34833;DHT22;55941;50.800;4.342;2023-04-03T17:11:31;12.10;55.60
34833;DHT22;55941;50.800;4.342;2023-04-03T17:13:57;12.30;55.70
34833;DHT22;55941;50.800;4.342;2023-04-03T17:16:24;12.40;55.40
34833;DHT22;55941;50.800;4.342;2023-04-03T17:18:50;12.30;55.30
34833;DHT22;55941;50.800;4.342;2023-04-03T17:21:17;12.20;55.60
34833;DHT22;55941;50.800;4.342;2023-04-03T17:23:46;11.90;56.70
34833;DHT22;55941;50.800;4.342;2023-04-03T17:26:14;12.00;57.10
34833;DHT22;55941;50.800;4.342;2023-04-03T17:28:40;12.10;56.60